Atlantic - Newfoundland: Past 24 Hour Conditions

 

Blanc-Sablon Airport

07:00 PM AST 04 March 2015
Disclaimer

This table is a summary of hourly weather conditions for the past 24 hours.
Please note that these observations might not always be representative of weather conditions over their associated marine area.

Date / Time
(AST)
Wind(knots) Conditions Visibility(km) Pressure(kPa) Air tempC) Relative humidity(%) Dew pointC) Wind Chill
04 March 2015
19:00 E 15 Light Snow 2 99.5 -11 85 -13 -21
18:00 ENE 17 Light Snow 3 99.6 -12 83 -15 -23
17:00 ENE 14 Light Snow 3 99.8 -13 82 -15 -23
16:00 ENE 13 Light Snow 3 99.9 -13 82 -16 -23
15:00 ENE 12 Light Snow 3 100.1 -14 79 -17 -23
14:00 ENE 4 Light Snow 2 100.3 -15 79 -18 -20
13:00 NNE 5 Light Snow 2 100.4 -16 77 -19 -21
12:00 NW 6 Light Snow 5 100.6 -16 72 -20 -23
11:00 WNW 11 Light Snow 16 100.8 -17 65 -22 -27
10:00 WNW 9 Mostly Cloudy 24 101.0 -18 63 -24 -27
9:00 NW 11 Mostly Cloudy 24 101.0 -20 56 -27 -31
8:00 WNW 8 Mostly Cloudy 24 101.2 -21 58 -27 -30
7:00 W 9 Mostly Cloudy 24 101.2 -22 58 -28 -32
6:00 WSW 15 Cloudy 24 101.2 -22 58 -28 -35
5:00 W 8 Partly Cloudy 24 101.1 -23 62 -28 -32
4:00 W 11 gust 17 Mainly Clear 24 101.1 -23 59 -29 -34
3:00 W 13 Partly Cloudy 24 101.0 -23 60 -28 -35
2:00 WSW 10 Partly Cloudy 24 100.9 -22 62 -27 -33
1:00 WSW 11 Partly Cloudy 24 100.8 -21 59 -27 -33
0:00 W 8 gust 15 Mainly Clear 24 100.7 -21 56 -27 -29
03 March 2015
23:00 W 12 gust 22 Light Snow 24 100.7 -20 57 -26 -31
22:00 WNW 25 gust 34 Light Snow 24 100.6 -19 61 -24 -33
21:00 WNW 18 gust 25 Light Snow 24 100.4 -17 61 -23 -29
20:00 NW 30 gust 39 Blowing Snow 6 100.2 -16 65 -21 -30
19:00 NW 27 gust 40 Drifting Snow 24 100.1 -14 62 -20 -28

Zoom-in to make a selection

Map of Atlantic - Newfoundland marine weather areas Southwestern Grand Banks - 44138 Banquereau - 44139 Tail of the Bank - 44140 Nickerson Bank - 44251 Northeast Burgeo Bank - 44255 Blanc-Sablon Airport Cap Whittle Chevery Natashquan Airport Heath Point Miscou Island Grand Étang Ingonish Beach North Mountain St.Paul Island J.A. Douglas McCurdy Sydney Airport Charlottetown Airport East Point North Cape Argentia Bonavista Burgeo Cape Race Corner Brook Daniel's Harbour Englee Ferolle Point La Scie Port aux Basques Rocky Harbour Sagona Island St. Anthony Airport St. John's Int'l Airport St. Lawrence Stephenville Airport Twillingate Winterland Wreckhouse Cartwright Airport Mary's Harbour Grates Cove Pool's Island Marticot Island Long Pond Îles de la Madeleine Airport
Legend:
buoy Buoy
land station Land Station

Atlantic - Newfoundland Area

Another Region

What we are doing

Date modified: